Time;durP1;ratioP1;P1;durP2;ratioP2;P2;SDS_P1;SDS_P2;PMS_P1;PMS_P2;Temp;Humidity;BMP_temperature;BMP_pressure;BME280_temperature;BME280_humidity;BME280_pressure;Samples;Min_cycle;Max_cycle;Signal;HPM_P1;HPM_P2
2022/08/29 00:01:11;;;;;;;5.50;5.00;;;23.10;61.10;;;;;;5016530;28;20216;-71
2022/08/29 00:03:39;;;;;;;5.70;5.20;;;23.10;61.10;;;;;;5016364;28;20203;-71
2022/08/29 00:06:06;;;;;;;6.40;5.38;;;23.10;61.10;;;;;;5016919;28;20214;-71
2022/08/29 00:08:33;;;;;;;6.13;5.53;;;23.10;61.10;;;;;;5016558;28;20327;-71
2022/08/29 00:11:00;;;;;;;6.10;5.50;;;23.10;61.10;;;;;;5016675;28;20243;-71
2022/08/29 00:13:27;;;;;;;5.90;5.15;;;23.10;61.10;;;;;;5016396;28;20599;-71
2022/08/29 00:15:54;;;;;;;6.10;5.43;;;23.00;61.10;;;;;;5000169;28;20235;-71
2022/08/29 00:18:21;;;;;;;5.32;4.82;;;23.00;61.10;;;;;;5016661;28;20200;-71
2022/08/29 00:20:49;;;;;;;5.68;5.10;;;23.00;62.00;;;;;;5033990;28;20212;-71
2022/08/29 00:23:16;;;;;;;5.47;4.88;;;23.00;61.20;;;;;;5016319;28;20200;-71
2022/08/29 00:25:44;;;;;;;6.93;4.95;;;23.00;61.20;;;;;;5016324;28;20666;-71
2022/08/29 00:28:11;;;;;;;5.30;4.80;;;23.00;61.30;;;;;;5000153;28;20202;-71
2022/08/29 00:30:38;;;;;;;5.72;5.22;;;23.00;61.30;;;;;;5016220;28;20240;-71
2022/08/29 00:33:05;;;;;;;4.85;4.45;;;23.00;61.30;;;;;;5016610;28;20254;-71
2022/08/29 00:35:33;;;;;;;5.30;4.80;;;23.00;62.10;;;;;;5016531;28;20582;-71
2022/08/29 00:38:01;;;;;;;5.53;4.80;;;23.00;61.40;;;;;;5016312;28;20672;-71
2022/08/29 00:40:30;;;;;;;4.82;4.43;;;23.00;61.40;;;;;;5016347;28;20216;-71
2022/08/29 00:42:57;;;;;;;5.40;4.90;;;22.90;61.30;;;;;;5016135;28;20246;-71
2022/08/29 00:45:25;;;;;;;5.22;4.82;;;22.90;61.30;;;;;;5016016;28;20204;-71
2022/08/29 00:47:54;;;;;;;5.03;4.63;;;23.00;61.50;;;;;;5016496;28;20200;-71
2022/08/29 00:50:24;;;;;;;5.13;4.63;;;23.00;61.50;;;;;;5016293;28;20215;-71
2022/08/29 00:52:51;;;;;;;5.15;4.70;;;22.90;61.40;;;;;;5016149;28;20291;-71
2022/08/29 00:55:21;;;;;;;4.93;4.53;;;22.90;61.50;;;;;;5016815;28;20254;-71
2022/08/29 00:57:50;;;;;;;6.22;4.93;;;22.90;61.50;;;;;;5016392;28;20545;-71
2022/08/29 01:00:17;;;;;;;5.22;4.72;;;22.90;61.50;;;;;;5016144;28;20279;-71
2022/08/29 01:02:44;;;;;;;4.90;4.45;;;22.90;61.50;;;;;;5016303;28;20200;-71
2022/08/29 01:05:13;;;;;;;5.57;5.07;;;22.90;61.60;;;;;;5015895;28;20666;-71
2022/08/29 01:07:40;;;;;;;5.18;4.68;;;22.90;61.60;;;;;;5015768;28;20200;-71
2022/08/29 01:10:08;;;;;;;5.35;4.93;;;22.90;61.60;;;;;;5015792;28;20220;-71
2022/08/29 01:12:36;;;;;;;5.18;4.55;;;22.90;61.60;;;;;;5015863;28;20204;-71
2022/08/29 01:15:06;;;;;;;4.82;4.43;;;22.90;61.60;;;;;;5016077;28;20276;-71
2022/08/29 01:17:36;;;;;;;5.50;5.00;;;22.80;61.50;;;;;;5016202;28;20204;-71
2022/08/29 01:20:06;;;;;;;5.32;4.82;;;22.90;61.60;;;;;;5016191;28;20195;-71
2022/08/29 01:22:56;;;;;;;4.45;4.07;;;22.90;61.60;;;;;;5015831;28;20238;-71
2022/08/29 01:25:26;;;;;;;5.18;4.68;;;22.90;61.60;;;;;;5015815;28;20643;-71
2022/08/29 01:27:54;;;;;;;5.18;4.68;;;22.80;61.50;;;;;;5033693;28;20189;-71
2022/08/29 01:30:22;;;;;;;5.10;4.68;;;22.80;61.50;;;;;;5033471;28;20244;-71
2022/08/29 01:32:49;;;;;;;4.90;4.43;;;22.80;61.50;;;;;;5015792;28;20219;-71
2022/08/29 01:35:16;;;;;;;5.10;4.30;;;22.80;61.50;;;;;;5017218;28;20206;-71
2022/08/29 01:37:44;;;;;;;4.53;4.18;;;22.80;61.50;;;;;;5020252;28;20721;-71
2022/08/29 01:40:11;;;;;;;4.90;4.50;;;22.80;61.50;;;;;;5022153;28;20283;-71
2022/08/29 01:42:40;;;;;;;4.93;4.53;;;22.80;61.60;;;;;;5019727;28;20223;-71
2022/08/29 01:45:07;;;;;;;4.68;4.28;;;22.80;61.60;;;;;;5019297;28;20657;-71
2022/08/29 01:47:34;;;;;;;4.60;4.20;;;22.80;61.60;;;;;;5019199;28;20641;-71
2022/08/29 01:50:02;;;;;;;4.72;4.32;;;22.80;61.60;;;;;;5036860;28;20214;-71
2022/08/29 01:52:30;;;;;;;4.50;4.10;;;22.80;61.70;;;;;;5018990;28;20303;-71
2022/08/29 01:54:57;;;;;;;4.53;4.13;;;22.80;61.70;;;;;;5019262;28;20196;-71
2022/08/29 01:57:24;;;;;;;4.75;4.35;;;22.70;61.70;;;;;;5002966;28;20211;-71
2022/08/29 01:59:53;;;;;;;4.68;4.28;;;22.70;61.60;;;;;;5018845;28;20674;-71
2022/08/29 02:02:21;;;;;;;5.00;4.53;;;22.80;61.70;;;;;;5018827;28;20226;-71
2022/08/29 02:04:48;;;;;;;4.88;4.47;;;22.70;61.70;;;;;;5036476;28;20258;-71
2022/08/29 02:07:17;;;;;;;5.00;4.60;;;22.70;61.70;;;;;;5018867;28;20288;-71
2022/08/29 02:09:44;;;;;;;4.88;4.53;;;22.70;61.80;;;;;;5018656;28;20216;-71
2022/08/29 02:12:12;;;;;;;4.85;4.45;;;22.70;61.70;;;;;;5037311;28;20208;-71
2022/08/29 02:14:39;;;;;;;4.85;4.47;;;22.70;61.80;;;;;;5020707;28;20200;-71
2022/08/29 02:17:08;;;;;;;4.60;4.20;;;22.70;61.80;;;;;;5018729;28;20203;-71
2022/08/29 02:19:35;;;;;;;4.93;4.43;;;22.70;61.80;;;;;;5019128;28;20282;-71
2022/08/29 02:22:02;;;;;;;4.47;4.10;;;22.70;61.80;;;;;;5019002;28;20216;-71
2022/08/29 02:24:29;;;;;;;5.55;4.68;;;22.70;61.90;;;;;;5021707;28;20200;-71
2022/08/29 02:26:56;;;;;;;4.40;4.10;;;22.70;61.80;;;;;;5020430;28;20200;-71
2022/08/29 02:29:23;;;;;;;4.93;4.20;;;22.70;61.90;;;;;;5018620;28;20685;-71
2022/08/29 02:31:50;;;;;;;4.60;4.20;;;22.70;61.90;;;;;;5036231;28;20689;-71
2022/08/29 02:34:18;;;;;;;4.70;4.30;;;22.70;61.90;;;;;;5019188;28;20204;-71
2022/08/29 02:36:45;;;;;;;4.60;4.20;;;22.70;61.90;;;;;;5018198;28;20196;-71
2022/08/29 02:39:12;;;;;;;4.18;3.83;;;22.70;61.90;;;;;;5018306;28;20204;-71
2022/08/29 02:41:39;;;;;;;4.70;4.30;;;22.70;61.90;;;;;;5018270;28;20224;-71
2022/08/29 02:44:07;;;;;;;4.82;4.43;;;22.70;62.00;;;;;;5018502;28;20206;-71
2022/08/29 02:46:34;;;;;;;4.53;4.22;;;22.70;62.00;;;;;;5017453;28;20204;-71
2022/08/29 02:49:00;;;;;;;4.65;4.18;;;22.60;61.80;;;;;;5017631;28;20218;-71
2022/08/29 02:51:30;;;;;;;4.78;4.38;;;22.70;62.00;;;;;;5017904;28;20227;-71
2022/08/29 02:53:58;;;;;;;4.63;4.22;;;22.70;62.00;;;;;;5001870;28;20196;-71
2022/08/29 02:56:24;;;;;;;4.40;4.00;;;22.70;62.00;;;;;;5017871;28;20199;-71
2022/08/29 02:58:51;;;;;;;4.25;3.90;;;22.60;61.90;;;;;;5018729;28;20200;-71
2022/08/29 03:01:19;;;;;;;4.68;4.28;;;22.60;61.90;;;;;;5017839;28;20266;-71
2022/08/29 03:03:46;;;;;;;4.97;4.50;;;22.60;61.90;;;;;;5017767;28;20208;-71
2022/08/29 03:06:13;;;;;;;4.55;4.20;;;22.60;61.90;;;;;;5017823;28;20208;-71
2022/08/29 03:08:42;;;;;;;5.00;4.60;;;22.60;61.90;;;;;;5017835;28;20196;-71
2022/08/29 03:11:09;;;;;;;4.85;4.45;;;22.60;61.90;;;;;;5018250;28;20238;-71
2022/08/29 03:13:37;;;;;;;5.05;4.60;;;22.60;61.90;;;;;;5017520;28;20704;-71
2022/08/29 03:16:04;;;;;;;4.90;4.50;;;22.60;61.80;;;;;;5035097;28;20242;-71
2022/08/29 03:18:31;;;;;;;5.18;4.68;;;22.60;61.70;;;;;;5017350;28;20655;-71
2022/08/29 03:20:59;;;;;;;4.93;4.53;;;22.60;61.70;;;;;;5017450;28;20220;-71
2022/08/29 03:23:26;;;;;;;5.05;4.65;;;22.70;61.70;;;;;;5017373;28;20199;-71
2022/08/29 03:25:54;;;;;;;4.68;4.28;;;22.70;61.60;;;;;;5018954;28;20681;-70
2022/08/29 03:28:21;;;;;;;4.60;4.20;;;22.70;61.40;;;;;;5019448;28;20200;-70
2022/08/29 03:30:48;;;;;;;4.63;4.22;;;22.80;61.40;;;;;;5019325;28;20228;-71
2022/08/29 03:33:15;;;;;;;4.90;4.50;;;22.90;61.30;;;;;;5019262;28;20654;-71
2022/08/29 03:35:42;;;;;;;5.07;4.57;;;22.90;61.00;;;;;;5019798;28;20295;-71
2022/08/29 03:38:10;;;;;;;4.85;4.45;;;22.90;60.80;;;;;;5020723;28;20211;-71
2022/08/29 03:40:36;;;;;;;4.78;4.38;;;23.00;60.70;;;;;;5019692;28;20216;-71
2022/08/29 03:43:05;;;;;;;4.72;4.32;;;23.00;60.50;;;;;;5019933;28;20200;-71
2022/08/29 03:45:32;;;;;;;4.90;4.50;;;23.10;60.40;;;;;;5020215;28;20233;-71
2022/08/29 03:47:59;;;;;;;4.80;4.40;;;23.10;60.30;;;;;;5004218;28;20196;-71
2022/08/29 03:50:26;;;;;;;4.57;4.18;;;23.10;60.10;;;;;;5020926;28;20244;-71
2022/08/29 03:52:53;;;;;;;5.05;4.65;;;23.10;60.00;;;;;;5021042;28;20197;-70
2022/08/29 03:55:20;;;;;;;4.78;4.35;;;23.10;59.90;;;;;;5039603;28;20192;-71
2022/08/29 03:57:47;;;;;;;5.00;4.60;;;23.10;59.90;;;;;;5038905;28;20192;-71
2022/08/29 04:00:18;;;;;;;4.50;4.10;;;23.20;59.80;;;;;;5021275;28;20203;-71
2022/08/29 04:02:45;;;;;;;4.72;4.32;;;23.20;59.80;;;;;;5019617;28;20224;-71
2022/08/29 04:05:12;;;;;;;4.95;4.55;;;23.20;59.70;;;;;;5022330;28;20716;-71
2022/08/29 04:07:41;;;;;;;4.55;4.15;;;23.20;59.60;;;;;;5021242;28;20196;-71
2022/08/29 04:10:09;;;;;;;4.78;4.35;;;23.30;59.70;;;;;;5021734;28;20744;-71
2022/08/29 04:12:37;;;;;;;5.00;4.60;;;23.30;59.70;;;;;;5005140;28;20199;-71
2022/08/29 04:15:05;;;;;;;4.72;4.32;;;23.20;59.60;;;;;;5020149;28;20206;-71
2022/08/29 04:17:33;;;;;;;4.70;4.30;;;23.20;59.60;;;;;;5019913;28;20667;-71
2022/08/29 04:20:00;;;;;;;4.35;4.05;;;23.20;59.60;;;;;;5005217;28;20203;-71
2022/08/29 04:22:27;;;;;;;4.68;4.28;;;23.20;59.60;;;;;;5018059;28;20247;-71
2022/08/29 04:24:54;;;;;;;5.00;4.60;;;23.20;59.60;;;;;;5016651;28;20639;-71
2022/08/29 04:27:21;;;;;;;4.30;4.00;;;23.10;59.50;;;;;;5017350;28;20246;-71
2022/08/29 04:29:48;;;;;;;4.57;4.22;;;23.10;59.50;;;;;;5016539;28;20219;-71
2022/08/29 04:32:16;;;;;;;4.68;4.30;;;23.10;59.50;;;;;;5016241;28;20290;-71
2022/08/29 04:34:44;;;;;;;4.03;3.72;;;23.10;59.60;;;;;;5016470;28;20206;-72
2022/08/29 04:37:11;;;;;;;4.88;4.47;;;23.10;59.60;;;;;;5034043;28;20246;-72
2022/08/29 04:39:39;;;;;;;4.60;4.20;;;23.10;59.70;;;;;;5016260;28;20232;-72
2022/08/29 04:42:06;;;;;;;4.85;4.50;;;23.10;59.80;;;;;;5016812;28;20315;-71
2022/08/29 04:44:33;;;;;;;4.70;4.30;;;23.00;59.70;;;;;;5016714;28;20200;-71
2022/08/29 04:47:00;;;;;;;4.95;4.55;;;23.00;59.70;;;;;;5034390;28;20192;-72
2022/08/29 04:49:27;;;;;;;4.55;4.15;;;23.00;59.80;;;;;;5016575;28;20196;-72
2022/08/29 04:51:55;;;;;;;4.45;4.10;;;23.00;59.80;;;;;;5016180;28;20223;-72
2022/08/29 04:54:22;;;;;;;4.75;4.35;;;23.00;59.80;;;;;;5016104;28;20204;-71
2022/08/29 04:56:49;;;;;;;4.85;4.35;;;23.00;59.80;;;;;;5016103;28;20207;-71
2022/08/29 04:59:16;;;;;;;4.65;4.25;;;22.90;59.80;;;;;;5016397;28;20210;-71
2022/08/29 05:01:43;;;;;;;4.65;4.25;;;22.90;59.90;;;;;;5016359;28;20243;-71
2022/08/29 05:04:10;;;;;;;4.78;4.38;;;22.90;59.90;;;;;;5015838;28;20253;-71
2022/08/29 05:06:37;;;;;;;4.40;4.00;;;22.90;60.00;;;;;;5015945;28;20242;-71
2022/08/29 05:09:05;;;;;;;5.22;4.50;;;22.90;59.90;;;;;;5016318;28;20211;-72
2022/08/29 05:11:32;;;;;;;4.85;4.45;;;22.90;60.00;;;;;;5036511;28;20219;-71
2022/08/29 05:14:00;;;;;;;4.53;4.22;;;22.90;60.00;;;;;;5020953;28;20200;-71
2022/08/29 05:16:28;;;;;;;5.00;4.60;;;22.90;60.00;;;;;;5020129;28;20192;-71
2022/08/29 05:18:55;;;;;;;4.82;4.43;;;22.90;60.00;;;;;;5004012;28;20219;-71
2022/08/29 05:21:23;;;;;;;4.60;4.20;;;22.90;60.00;;;;;;5020620;28;20216;-71
2022/08/29 05:23:50;;;;;;;4.70;4.30;;;22.90;59.90;;;;;;5022763;28;20235;-71
2022/08/29 05:26:18;;;;;;;4.60;4.20;;;22.90;59.90;;;;;;5019986;28;20259;-71
2022/08/29 05:28:45;;;;;;;4.72;4.35;;;22.90;59.80;;;;;;5019919;28;20286;-71
2022/08/29 05:31:13;;;;;;;4.70;4.30;;;22.90;59.80;;;;;;5037813;28;20567;-72
2022/08/29 05:33:40;;;;;;;4.60;4.20;;;23.00;59.80;;;;;;5019532;28;20661;-72
2022/08/29 05:36:07;;;;;;;4.72;4.22;;;23.00;59.80;;;;;;5020083;28;20200;-72
2022/08/29 05:38:34;;;;;;;4.70;4.20;;;23.00;59.70;;;;;;5037247;28;20207;-72
2022/08/29 05:41:01;;;;;;;5.15;4.75;;;23.00;59.60;;;;;;5019435;28;20216;-72
2022/08/29 05:43:30;;;;;;;5.00;4.60;;;23.10;59.20;;;;;;5019421;28;20223;-72
2022/08/29 05:46:02;;;;;;;5.22;4.82;;;23.30;58.80;;;;;;5019228;28;20207;-72
2022/08/29 05:48:29;;;;;;;4.32;3.92;;;23.50;58.40;;;;;;5020773;28;20611;-72
2022/08/29 05:50:56;;;;;;;4.70;4.40;;;23.70;57.80;;;;;;5019907;28;20228;-72
2022/08/29 05:53:24;;;;;;;4.55;4.15;;;23.90;57.40;;;;;;5039089;28;20202;-72
2022/08/29 05:55:50;;;;;;;4.35;4.05;;;24.10;56.80;;;;;;5019207;28;20212;-72
2022/08/29 05:58:17;;;;;;;3.90;3.60;;;24.30;56.30;;;;;;5019138;28;20192;-72
2022/08/29 06:00:46;;;;;;;4.90;4.45;;;24.50;55.90;;;;;;5019026;28;20311;-72
2022/08/29 06:03:13;;;;;;;4.50;4.20;;;24.70;55.50;;;;;;5018918;28;20215;-72
2022/08/29 06:05:41;;;;;;;4.32;4.00;;;24.80;55.10;;;;;;5036446;28;20658;-72
2022/08/29 06:08:08;;;;;;;4.78;4.38;;;25.00;54.80;;;;;;5002763;28;20196;-72
2022/08/29 06:10:39;;;;;;;4.45;4.10;;;25.10;54.40;;;;;;5036314;28;20216;-72
2022/08/29 06:13:06;;;;;;;4.20;3.90;;;25.30;54.20;;;;;;5018183;28;20198;-72
2022/08/29 06:15:33;;;;;;;4.60;4.13;;;25.40;53.80;;;;;;5017359;28;20291;-72
2022/08/29 06:18:02;;;;;;;4.20;3.80;;;25.50;53.50;;;;;;5018468;28;20228;-72
2022/08/29 06:20:29;;;;;;;4.90;4.40;;;25.70;53.30;;;;;;5018472;28;20570;-72
2022/08/29 06:22:55;;;;;;;4.60;4.30;;;25.80;53.00;;;;;;5018235;28;20563;-72
2022/08/29 06:25:22;;;;;;;4.20;3.90;;;25.90;52.70;;;;;;5018669;28;20650;-72
2022/08/29 06:27:53;;;;;;;5.10;4.50;;;26.00;52.50;;;;;;5018590;28;20210;-72
2022/08/29 06:30:20;;;;;;;5.63;5.03;;;26.10;52.30;;;;;;5018876;28;20250;-72
2022/08/29 06:32:47;;;;;;;6.95;5.90;;;26.10;52.10;;;;;;5018414;28;20202;-72
2022/08/29 06:35:16;;;;;;;9.07;5.28;;;26.20;51.70;;;;;;5018378;28;20200;-72
2022/08/29 06:37:43;;;;;;;5.38;4.88;;;26.20;51.80;;;;;;5017079;28;20200;-72
2022/08/29 06:40:11;;;;;;;10.38;5.60;;;26.30;51.60;;;;;;5035612;28;20191;-72
2022/08/29 06:42:38;;;;;;;5.78;4.95;;;26.40;51.30;;;;;;5035708;28;20196;-72
2022/08/29 06:45:07;;;;;;;7.72;6.85;;;26.40;51.20;;;;;;5002390;28;20286;-72
2022/08/29 06:47:34;;;;;;;10.48;8.93;;;26.60;50.80;;;;;;5036099;28;20192;-72
2022/08/29 06:50:01;;;;;;;10.70;9.65;;;26.20;51.60;;;;;;5020215;28;20200;-72
2022/08/29 06:52:30;;;;;;;9.80;8.82;;;26.00;51.80;;;;;;5019502;28;20224;-72
2022/08/29 06:54:56;;;;;;;13.68;10.30;;;25.60;52.60;;;;;;5018973;28;20204;-71
2022/08/29 06:57:25;;;;;;;11.63;10.45;;;25.30;53.80;;;;;;5036009;28;20212;-71
2022/08/29 06:59:52;;;;;;;11.65;10.00;;;25.10;54.50;;;;;;5001821;28;20207;-71
2022/08/29 07:02:19;;;;;;;12.35;9.63;;;24.90;54.60;;;;;;5018520;28;20270;-71
2022/08/29 07:04:46;;;;;;;11.32;10.13;;;24.80;54.90;;;;;;5018079;28;20650;-71
2022/08/29 07:07:13;;;;;;;13.50;9.80;;;24.70;55.00;;;;;;5017698;28;20658;-72
2022/08/29 07:09:41;;;;;;;11.45;10.00;;;24.80;54.40;;;;;;5017622;28;20261;-72
2022/08/29 07:12:08;;;;;;;12.57;10.02;;;24.90;55.10;;;;;;5017463;28;20224;-71
2022/08/29 07:14:35;;;;;;;11.98;10.23;;;24.80;55.30;;;;;;5017660;28;20203;-72
2022/08/29 07:17:02;;;;;;;11.82;10.25;;;24.80;55.30;;;;;;5017650;28;20654;-72
2022/08/29 07:19:29;;;;;;;12.00;9.90;;;24.70;55.50;;;;;;5017660;28;20207;-72
2022/08/29 07:21:58;;;;;;;10.77;9.60;;;24.70;55.80;;;;;;5017755;28;20208;-73
2022/08/29 07:24:25;;;;;;;11.27;10.10;;;24.70;56.50;;;;;;5017597;28;20615;-71
2022/08/29 07:26:53;;;;;;;11.23;10.10;;;24.80;54.90;;;;;;5017623;28;20295;-71
2022/08/29 07:29:21;;;;;;;11.23;10.00;;;24.90;55.00;;;;;;5017611;28;20200;-72
2022/08/29 07:31:48;;;;;;;10.02;8.98;;;24.80;54.70;;;;;;5036977;28;20216;-71
2022/08/29 07:34:15;;;;;;;11.27;10.18;;;25.10;54.10;;;;;;5036017;28;20196;-71
2022/08/29 07:36:42;;;;;;;11.32;9.80;;;25.20;54.00;;;;;;5017224;28;20207;-71
2022/08/29 07:39:11;;;;;;;14.27;10.45;;;25.20;54.30;;;;;;5017106;28;20278;-72
2022/08/29 07:41:38;;;;;;;12.38;10.85;;;25.20;53.40;;;;;;5016856;28;20291;-71
2022/08/29 07:44:06;;;;;;;11.10;9.73;;;25.10;53.60;;;;;;5017094;28;20200;-71
2022/08/29 07:46:33;;;;;;;11.77;9.85;;;25.20;54.10;;;;;;5017248;28;20568;-72
2022/08/29 07:49:00;;;;;;;14.10;11.15;;;25.40;53.80;;;;;;5017267;28;20207;-72
2022/08/29 07:51:27;;;;;;;12.90;10.45;;;25.60;52.80;;;;;;5034349;28;20211;-72
2022/08/29 07:53:54;;;;;;;12.38;10.25;;;25.70;52.90;;;;;;5016695;28;20188;-72
2022/08/29 07:56:23;;;;;;;14.10;10.93;;;25.70;52.80;;;;;;5016856;28;20203;-72
2022/08/29 07:58:50;;;;;;;16.17;10.73;;;25.70;53.00;;;;;;5017864;28;20203;-72
2022/08/29 08:01:18;;;;;;;12.48;10.13;;;25.70;53.40;;;;;;5017171;28;20306;-72
2022/08/29 08:03:46;;;;;;;13.15;10.68;;;25.80;53.00;;;;;;5034343;28;20249;-72
2022/08/29 08:06:13;;;;;;;11.43;10.23;;;25.90;52.90;;;;;;5016581;28;20245;-71
2022/08/29 08:09:00;;;;;;;10.73;8.85;;;25.90;52.40;;;;;;5034582;28;20187;-72
2022/08/29 08:11:27;;;;;;;10.80;8.77;;;26.10;52.20;;;;;;5017804;28;20247;-72
2022/08/29 08:13:54;;;;;;;9.20;7.93;;;26.30;51.80;;;;;;5017140;28;20187;-72
2022/08/29 08:16:24;;;;;;;13.57;8.38;;;26.50;51.50;;;;;;5016839;28;20253;-72
2022/08/29 08:18:51;;;;;;;9.70;8.15;;;26.60;51.20;;;;;;5016642;28;20195;-72
2022/08/29 08:21:18;;;;;;;11.73;8.05;;;26.70;50.90;;;;;;5016368;28;20212;-72
2022/08/29 08:23:45;;;;;;;11.18;8.00;;;26.90;50.50;;;;;;5016333;28;20294;-72
2022/08/29 08:26:13;;;;;;;12.30;8.57;;;27.00;50.20;;;;;;5034029;28;20588;-72
2022/08/29 08:28:40;;;;;;;9.02;7.97;;;27.10;50.10;;;;;;5016258;28;20195;-72
2022/08/29 08:31:08;;;;;;;9.00;8.13;;;27.20;49.80;;;;;;5016238;28;20223;-72
2022/08/29 08:33:37;;;;;;;9.25;8.07;;;27.20;49.70;;;;;;5016531;28;20203;-72
2022/08/29 08:36:05;;;;;;;10.70;7.65;;;27.20;50.00;;;;;;5016639;28;20199;-72
2022/08/29 08:38:34;;;;;;;11.43;7.90;;;27.30;49.90;;;;;;5016963;28;20239;-72
2022/08/29 08:41:04;;;;;;;9.68;7.47;;;27.40;49.80;;;;;;5016028;28;20273;-72
2022/08/29 08:43:38;;;;;;;10.80;8.10;;;27.50;49.20;;;;;;5016068;28;20199;-72
2022/08/29 08:46:06;;;;;;;12.63;7.45;;;27.60;48.90;;;;;;5015209;28;20196;-72
2022/08/29 08:48:37;;;;;;;8.60;6.85;;;27.70;48.70;;;;;;5034169;28;20200;-72
2022/08/29 08:51:06;;;;;;;7.32;6.63;;;27.80;48.60;;;;;;5016716;28;20678;-72
2022/08/29 08:53:34;;;;;;;7.07;6.20;;;27.80;48.60;;;;;;5017464;28;20221;-72
2022/08/29 08:56:03;;;;;;;7.90;6.80;;;27.90;48.30;;;;;;5033954;28;20192;-72
2022/08/29 08:58:32;;;;;;;7.15;6.50;;;28.00;48.10;;;;;;5016075;28;20658;-72
2022/08/29 09:01:00;;;;;;;8.10;6.13;;;28.00;48.00;;;;;;5033887;28;20269;-72
2022/08/29 09:03:56;;;;;;;8.38;6.75;;;28.00;48.30;;;;;;5015846;28;20201;-72
2022/08/29 09:06:34;;;;;;;8.07;6.03;;;28.00;48.30;;;;;;5033800;28;20545;-72
2022/08/29 09:09:05;;;;;;;9.50;6.88;;;28.10;48.90;;;;;;5016727;28;20195;-73
2022/08/29 09:11:35;;;;;;;7.45;6.63;;;28.10;48.10;;;;;;5015700;28;20223;-72
2022/08/29 09:14:05;;;;;;;7.38;5.80;;;28.10;47.90;;;;;;4999636;28;20231;-72
2022/08/29 09:16:34;;;;;;;8.45;5.82;;;28.20;47.80;;;;;;5015987;28;20298;-72
2022/08/29 09:19:04;;;;;;;7.45;5.88;;;28.20;47.90;;;;;;5015802;28;20203;-72
2022/08/29 09:21:34;;;;;;;6.22;5.25;;;28.20;48.10;;;;;;5015866;28;20223;-72
2022/08/29 09:24:01;;;;;;;6.05;5.45;;;28.20;48.00;;;;;;5033651;28;20275;-72
2022/08/29 09:26:28;;;;;;;6.25;5.65;;;28.20;47.70;;;;;;5015796;28;20576;-72
2022/08/29 09:28:56;;;;;;;7.30;5.78;;;28.30;47.60;;;;;;5015742;28;20207;-72
2022/08/29 09:31:24;;;;;;;6.47;5.82;;;28.30;47.40;;;;;;5015738;28;20224;-72
2022/08/29 09:33:53;;;;;;;8.40;6.03;;;28.30;47.30;;;;;;4999408;28;20278;-72
2022/08/29 09:36:37;;;;;;;6.68;5.47;;;28.30;47.30;;;;;;5016021;28;20628;-72
2022/08/29 09:39:16;;;;;;;5.65;5.15;;;28.30;47.40;;;;;;5015893;28;20199;-72
2022/08/29 09:41:43;;;;;;;7.07;4.95;;;28.30;47.30;;;;;;5017676;28;20221;-72
2022/08/29 09:44:13;;;;;;;6.32;5.28;;;28.40;47.30;;;;;;5033712;28;20194;-72
2022/08/29 09:46:40;;;;;;;7.13;5.35;;;28.30;47.20;;;;;;5016435;28;20204;-72
2022/08/29 09:49:12;;;;;;;6.70;5.32;;;28.30;47.20;;;;;;5034392;28;20218;-72
2022/08/29 09:51:42;;;;;;;6.32;4.82;;;28.30;47.20;;;;;;5015795;28;20229;-72
2022/08/29 09:54:16;;;;;;;6.82;5.30;;;28.30;47.20;;;;;;5000008;28;20200;-72
2022/08/29 09:56:49;;;;;;;6.03;5.43;;;28.30;47.20;;;;;;5016826;28;20191;-72
2022/08/29 09:59:24;;;;;;;5.95;5.30;;;28.30;47.30;;;;;;5017230;28;20223;-72
2022/08/29 10:02:27;;;;;;;5.53;5.00;;;28.30;47.30;;;;;;5019267;28;20231;-72
2022/08/29 10:04:55;;;;;;;5.13;4.63;;;28.20;47.20;;;;;;4975869;28;20201;-72
2022/08/29 10:07:26;;;;;;;5.53;4.97;;;28.30;47.30;;;;;;4960030;28;20216;-72
2022/08/29 10:10:05;;;;;;;7.32;5.72;;;28.30;47.30;;;;;;4988103;28;20233;-72
2022/08/29 10:12:38;;;;;;;6.10;5.50;;;28.20;47.60;;;;;;5018851;28;20302;-72
2022/08/29 10:15:07;;;;;;;5.90;4.78;;;28.20;48.30;;;;;;5018797;28;20642;-71
2022/08/29 10:20:22;;;;;;;7.82;5.10;;;28.10;48.20;;;;;;5018556;28;20191;-72
2022/08/29 10:22:54;;;;;;;5.97;4.68;;;28.10;47.40;;;;;;5018595;28;20579;-72
2022/08/29 10:25:23;;;;;;;6.00;4.88;;;28.10;47.60;;;;;;5018646;28;20199;-71
2022/08/29 10:27:53;;;;;;;6.43;4.55;;;28.10;46.80;;;;;;5019389;28;20199;-71
2022/08/29 10:30:21;;;;;;;6.30;4.15;;;28.10;46.80;;;;;;5018545;28;20196;-72
2022/08/29 10:33:06;;;;;;;5.25;4.60;;;28.00;46.80;;;;;;5036013;28;20549;-71
2022/08/29 10:35:35;;;;;;;5.35;4.50;;;28.00;47.00;;;;;;5018599;28;20562;-72
2022/08/29 10:38:06;;;;;;;4.65;4.25;;;28.00;46.80;;;;;;5017924;28;20203;-71
2022/08/29 10:40:40;;;;;;;4.97;4.47;;;27.90;46.80;;;;;;5018534;28;20219;-72
2022/08/29 10:43:38;;;;;;;5.63;4.47;;;27.90;47.00;;;;;;5002095;28;20533;-71
2022/08/29 10:46:27;;;;;;;4.68;4.28;;;27.90;47.00;;;;;;4940047;29;20680;-71
2022/08/29 10:48:57;;;;;;;6.72;4.32;;;27.80;47.00;;;;;;5013622;28;20202;-71
2022/08/29 10:51:30;;;;;;;6.45;4.13;;;27.80;47.10;;;;;;5019688;28;20215;-71
2022/08/29 10:54:02;;;;;;;5.53;4.30;;;27.60;46.90;;;;;;5019033;28;20207;-72
2022/08/29 10:56:32;;;;;;;6.22;4.40;;;27.60;47.60;;;;;;5019001;28;20191;-72
2022/08/29 10:59:03;;;;;;;5.03;4.38;;;27.50;48.00;;;;;;5035682;28;20184;-72
2022/08/29 11:01:32;;;;;;;4.57;4.18;;;27.50;48.70;;;;;;5017873;28;20226;-72
2022/08/29 11:04:16;;;;;;;5.05;4.35;;;27.50;48.20;;;;;;5035889;28;20195;-72
2022/08/29 11:06:50;;;;;;;4.60;4.20;;;27.50;48.10;;;;;;5019578;28;20200;-72
2022/08/29 11:09:22;;;;;;;4.80;4.35;;;27.50;48.20;;;;;;5036162;28;20621;-72
2022/08/29 11:11:58;;;;;;;6.15;4.28;;;27.50;48.40;;;;;;5018181;28;20603;-72
2022/08/29 11:14:28;;;;;;;6.90;4.57;;;27.40;48.70;;;;;;5015693;28;20250;-72
2022/08/29 11:16:55;;;;;;;4.43;4.03;;;27.40;49.10;;;;;;5018246;28;20199;-72
2022/08/29 11:19:24;;;;;;;5.55;4.35;;;27.40;48.90;;;;;;5035946;28;20192;-72
2022/08/29 11:21:54;;;;;;;4.97;4.50;;;27.30;49.20;;;;;;5017523;28;20220;-72
2022/08/29 11:24:22;;;;;;;5.50;5.00;;;27.30;48.90;;;;;;5015226;28;20203;-72
2022/08/29 11:26:52;;;;;;;7.70;4.85;;;27.30;48.00;;;;;;5017502;28;20301;-72
2022/08/29 11:29:25;;;;;;;5.50;4.53;;;27.30;48.40;;;;;;5017493;28;20203;-72
2022/08/29 11:31:56;;;;;;;4.95;4.45;;;27.30;48.60;;;;;;5033746;28;20222;-72
2022/08/29 11:34:45;;;;;;;6.78;4.60;;;27.20;48.80;;;;;;5007165;28;20212;-72
2022/08/29 11:38:00;;;;;;;5.10;4.38;;;27.20;48.60;;;;;;5007808;28;20199;-72
2022/08/29 11:40:41;;;;;;;4.38;4.07;;;27.20;49.00;;;;;;4995345;28;20248;-71
2022/08/29 11:43:10;;;;;;;5.57;4.13;;;27.20;48.70;;;;;;5001033;28;20674;-71
2022/08/29 11:45:38;;;;;;;5.10;4.35;;;27.20;48.10;;;;;;5013123;28;20195;-71
2022/08/29 11:48:18;;;;;;;4.97;4.50;;;27.30;48.10;;;;;;5032891;28;20188;-71
2022/08/29 11:50:45;;;;;;;5.18;4.68;;;27.20;48.00;;;;;;5010945;28;20227;-71
2022/08/29 11:53:14;;;;;;;4.97;4.47;;;27.20;47.40;;;;;;5016968;28;20216;-71
2022/08/29 11:55:42;;;;;;;4.47;4.03;;;27.20;47.90;;;;;;5017161;28;20200;-71
2022/08/29 11:58:41;;;;;;;4.53;4.13;;;27.20;47.80;;;;;;5016952;28;20199;-71
2022/08/29 12:01:10;;;;;;;7.13;4.63;;;27.20;47.40;;;;;;5016699;28;20587;-71
2022/08/29 12:03:46;;;;;;;4.90;4.25;;;27.20;47.60;;;;;;5017019;28;20201;-71
2022/08/29 12:06:18;;;;;;;5.20;4.50;;;27.20;47.50;;;;;;5016752;28;20206;-71
2022/08/29 12:08:46;;;;;;;5.28;4.22;;;27.30;47.70;;;;;;5016712;28;20207;-71
2022/08/29 12:11:17;;;;;;;5.03;4.22;;;27.20;47.70;;;;;;5016692;28;20768;-71
2022/08/29 12:14:01;;;;;;;4.50;4.07;;;27.20;47.50;;;;;;5017306;28;20563;-71
2022/08/29 12:16:45;;;;;;;4.57;4.18;;;27.30;47.60;;;;;;5011016;28;20612;-71
2022/08/29 12:19:14;;;;;;;6.00;4.13;;;27.20;47.60;;;;;;5014514;28;20264;-71
2022/08/29 12:21:44;;;;;;;6.38;4.50;;;27.20;47.60;;;;;;5011439;28;20226;-71
2022/08/29 12:24:41;;;;;;;5.93;4.38;;;27.20;47.90;;;;;;5033545;28;20188;-71
2022/08/29 12:27:38;;;;;;;12.45;5.45;;;27.20;48.10;;;;;;5016381;28;20233;-71
2022/08/29 12:30:10;;;;;;;16.58;5.72;;;27.20;48.40;;;;;;5013500;28;20195;-71
2022/08/29 12:32:45;;;;;;;6.32;4.80;;;27.20;49.20;;;;;;5016496;28;20211;-71
2022/08/29 12:35:28;;;;;;;7.25;5.13;;;27.10;46.20;;;;;;5035403;28;20199;-71
2022/08/29 12:38:04;;;;;;;6.68;4.65;;;27.10;47.10;;;;;;5034227;28;20180;-73
2022/08/29 12:40:56;;;;;;;8.15;4.72;;;27.10;46.90;;;;;;5017002;28;20225;-71
2022/08/29 12:43:34;;;;;;;8.98;4.57;;;27.00;47.40;;;;;;5007379;28;20199;-70
2022/08/29 12:46:04;;;;;;;6.38;4.70;;;27.10;46.80;;;;;;5015298;28;20196;-78
2022/08/29 12:48:34;;;;;;;4.95;4.30;;;27.00;48.40;;;;;;4997007;28;20219;-78
2022/08/29 12:51:03;;;;;;;9.10;5.05;;;26.70;48.20;;;;;;4996748;28;20290;-78
2022/08/29 12:53:32;;;;;;;10.75;5.00;;;26.50;48.50;;;;;;5014208;28;20208;-78
2022/08/29 12:56:00;;;;;;;9.73;5.10;;;26.30;48.90;;;;;;4996348;28;20204;-77
2022/08/29 12:58:38;;;;;;;7.03;5.03;;;26.10;48.90;;;;;;4996749;28;20663;-78
2022/08/29 13:01:09;;;;;;;5.78;5.13;;;25.90;49.00;;;;;;4995938;28;20216;-79